IBE476 GCTS-LEZL
Flight info
| Callsign | IBE476 |
|---|---|
| Flight time | 1h 52m |
| Altitude | 36000 |
| Route | KORAL UG5 ESS UN871 ADUBI DCT VJF |
| Aircraft | A319/M-SDE3FGHIRWY/LB1 |
Departure
| Time | 2026-05-05 14:26 |
|---|---|
| Airport | Tenerife Sur Airport (GCTS) |
Arrival
| Time | 2026-05-05 16:19 |
|---|---|
| Airport | Seville Airport (LEZL) |
| Time | Latitude | Longitude | Altitude | Speed | Heading |
|---|---|---|---|---|---|
| 2026-05-05 14:23 | 28.04287 | -16.58243 | 219 ft | 12 kts | 248° |
| 2026-05-05 14:23 | 28.04256 | -16.58328 | 217 ft | 12 kts | 248° |
| 2026-05-05 14:23 | 28.04227 | -16.58412 | 219 ft | 11 kts | 248° |
| 2026-05-05 14:23 | 28.04199 | -16.58493 | 220 ft | 11 kts | 248° |
| 2026-05-05 14:24 | 28.04179 | -16.58575 | 215 ft | 11 kts | 251° |
| 2026-05-05 14:24 | 28.04150 | -16.58663 | 214 ft | 12 kts | 250° |
| 2026-05-05 14:24 | 28.04113 | -16.58759 | 215 ft | 12 kts | 245° |
| 2026-05-05 14:24 | 28.04031 | -16.58766 | 212 ft | 17 kts | 139° |
| 2026-05-05 14:25 | 28.03999 | -16.58641 | 200 ft | 18 kts | 97° |
| 2026-05-05 14:25 | 28.04017 | -16.58490 | 195 ft | 25 kts | 69° |
| 2026-05-05 14:25 | 28.04169 | -16.58048 | 195 ft | 95 kts | 68° |
| 2026-05-05 14:25 | 28.04484 | -16.57141 | 206 ft | 149 kts | 68° |
| 2026-05-05 14:26 | 28.04864 | -16.56036 | 738 ft | 149 kts | 70° |
| 2026-05-05 14:26 | 28.05253 | -16.54938 | 1255 ft | 150 kts | 67° |
| 2026-05-05 14:26 | 28.05655 | -16.53793 | 1635 ft | 166 kts | 65° |
| 2026-05-05 14:26 | 28.06112 | -16.52495 | 1939 ft | 189 kts | 65° |
| 2026-05-05 14:27 | 28.06628 | -16.51022 | 2247 ft | 214 kts | 66° |
| 2026-05-05 14:27 | 28.07205 | -16.49361 | 2713 ft | 238 kts | 66° |
| 2026-05-05 14:27 | 28.07838 | -16.47534 | 3270 ft | 257 kts | 67° |
| 2026-05-05 14:27 | 28.08488 | -16.45613 | 4075 ft | 265 kts | 71° |
| 2026-05-05 14:28 | 28.08773 | -16.43554 | 4927 ft | 271 kts | 85° |
| 2026-05-05 14:28 | 28.08925 | -16.41406 | 5775 ft | 277 kts | 85° |
| 2026-05-05 14:28 | 28.09083 | -16.39173 | 6589 ft | 284 kts | 85° |
| 2026-05-05 14:28 | 28.09243 | -16.36952 | 7348 ft | 291 kts | 86° |
| 2026-05-05 14:29 | 28.09411 | -16.34641 | 8099 ft | 298 kts | 86° |
| 2026-05-05 14:29 | 28.09582 | -16.32272 | 8876 ft | 305 kts | 87° |
| 2026-05-05 14:29 | 28.09755 | -16.29866 | 9680 ft | 310 kts | 87° |
| 2026-05-05 14:29 | 28.09932 | -16.27405 | 10333 ft | 321 kts | 87° |
| 2026-05-05 14:30 | 28.10118 | -16.24791 | 10591 ft | 344 kts | 87° |
| 2026-05-05 14:30 | 28.10314 | -16.22008 | 10937 ft | 363 kts | 87° |
| 2026-05-05 14:30 | 28.10520 | -16.19128 | 11526 ft | 371 kts | 87° |
| 2026-05-05 14:30 | 28.10731 | -16.16188 | 12182 ft | 377 kts | 87° |
| 2026-05-05 14:31 | 28.10946 | -16.13200 | 12824 ft | 385 kts | 87° |
| 2026-05-05 14:31 | 28.11165 | -16.10152 | 13462 ft | 391 kts | 87° |
| 2026-05-05 14:31 | 28.11388 | -16.07058 | 14071 ft | 397 kts | 88° |
| 2026-05-05 14:31 | 28.11614 | -16.03917 | 14639 ft | 403 kts | 88° |
| 2026-05-05 14:32 | 28.11634 | -16.00736 | 15219 ft | 405 kts | 98° |
| 2026-05-05 14:32 | 28.11417 | -15.97548 | 15816 ft | 409 kts | 98° |
| 2026-05-05 14:32 | 28.11198 | -15.94316 | 16396 ft | 414 kts | 98° |
| 2026-05-05 14:32 | 28.10979 | -15.91052 | 16981 ft | 418 kts | 99° |
| 2026-05-05 14:33 | 28.10760 | -15.87750 | 17571 ft | 423 kts | 99° |
| 2026-05-05 14:33 | 28.10538 | -15.84416 | 18158 ft | 427 kts | 99° |
| 2026-05-05 14:33 | 28.10315 | -15.81083 | 18678 ft | 432 kts | 99° |
| 2026-05-05 14:33 | 28.10090 | -15.77681 | 19196 ft | 436 kts | 99° |
| 2026-05-05 14:34 | 28.09861 | -15.74240 | 19700 ft | 440 kts | 99° |
| 2026-05-05 14:34 | 28.09627 | -15.70768 | 20211 ft | 444 kts | 99° |
| 2026-05-05 14:34 | 28.09391 | -15.67273 | 20720 ft | 447 kts | 99° |
| 2026-05-05 14:34 | 28.09152 | -15.63743 | 21240 ft | 451 kts | 99° |
| 2026-05-05 14:35 | 28.08907 | -15.60179 | 21685 ft | 457 kts | 100° |
| 2026-05-05 14:35 | 28.08655 | -15.56568 | 22139 ft | 462 kts | 100° |
| 2026-05-05 14:35 | 28.08397 | -15.52924 | 22637 ft | 466 kts | 100° |
| 2026-05-05 14:35 | 28.08209 | -15.49237 | 23079 ft | 474 kts | 94° |
| 2026-05-05 14:36 | 28.08487 | -15.45476 | 23499 ft | 484 kts | 83° |
| 2026-05-05 14:36 | 28.09320 | -15.41751 | 23893 ft | 490 kts | 72° |
| 2026-05-05 14:36 | 28.10667 | -15.38243 | 24286 ft | 494 kts | 61° |
| 2026-05-05 14:36 | 28.12487 | -15.34946 | 24671 ft | 496 kts | 54° |
| 2026-05-05 14:37 | 28.14428 | -15.31703 | 25061 ft | 498 kts | 54° |
| 2026-05-05 14:37 | 28.16377 | -15.28444 | 25444 ft | 501 kts | 54° |
| 2026-05-05 14:37 | 28.18336 | -15.25168 | 25823 ft | 503 kts | 54° |
| 2026-05-05 14:37 | 28.20305 | -15.21869 | 26186 ft | 506 kts | 54° |
| 2026-05-05 14:38 | 28.22280 | -15.18557 | 26553 ft | 508 kts | 54° |
| 2026-05-05 14:38 | 28.24267 | -15.15222 | 26921 ft | 511 kts | 54° |
| 2026-05-05 14:38 | 28.26264 | -15.11871 | 27286 ft | 514 kts | 54° |
| 2026-05-05 14:38 | 28.28267 | -15.08502 | 27649 ft | 516 kts | 54° |
| 2026-05-05 14:39 | 28.30280 | -15.05116 | 27999 ft | 519 kts | 54° |
| 2026-05-05 14:39 | 28.32303 | -15.01719 | 28357 ft | 521 kts | 54° |
| 2026-05-05 14:39 | 28.34341 | -14.98303 | 28701 ft | 524 kts | 54° |
| 2026-05-05 14:39 | 28.36388 | -14.94869 | 29040 ft | 526 kts | 54° |
| 2026-05-05 14:40 | 28.38443 | -14.91418 | 29372 ft | 529 kts | 54° |
| 2026-05-05 14:40 | 28.40470 | -14.87996 | 29689 ft | 531 kts | 54° |
| 2026-05-05 14:40 | 28.42537 | -14.84495 | 30024 ft | 533 kts | 54° |
| 2026-05-05 14:40 | 28.44603 | -14.80991 | 30269 ft | 537 kts | 54° |
| 2026-05-05 14:41 | 28.46686 | -14.77459 | 30504 ft | 540 kts | 54° |
| 2026-05-05 14:41 | 28.48781 | -14.73908 | 30754 ft | 542 kts | 54° |
| 2026-05-05 14:41 | 28.50889 | -14.70336 | 30999 ft | 544 kts | 54° |
| 2026-05-05 14:41 | 28.53000 | -14.66753 | 31240 ft | 547 kts | 54° |
| 2026-05-05 14:42 | 28.55121 | -14.63156 | 31512 ft | 548 kts | 54° |
| 2026-05-05 14:42 | 28.57243 | -14.59559 | 31860 ft | 548 kts | 54° |
| 2026-05-05 14:42 | 28.59365 | -14.55964 | 32200 ft | 548 kts | 54° |
| 2026-05-05 14:42 | 28.61492 | -14.52353 | 32533 ft | 548 kts | 54° |
| 2026-05-05 14:43 | 28.63611 | -14.48746 | 32851 ft | 548 kts | 54° |
| 2026-05-05 14:43 | 28.65726 | -14.45136 | 33189 ft | 548 kts | 55° |
| 2026-05-05 14:43 | 28.67841 | -14.41523 | 33521 ft | 548 kts | 55° |
| 2026-05-05 14:43 | 28.69955 | -14.37907 | 33858 ft | 548 kts | 55° |
| 2026-05-05 14:44 | 28.72067 | -14.34295 | 34174 ft | 548 kts | 55° |
| 2026-05-05 14:44 | 28.74180 | -14.30674 | 34471 ft | 548 kts | 55° |
| 2026-05-05 14:44 | 28.76263 | -14.27104 | 34769 ft | 548 kts | 54° |
| 2026-05-05 14:44 | 28.78372 | -14.23495 | 35095 ft | 547 kts | 54° |
| 2026-05-05 14:45 | 28.80482 | -14.19888 | 35355 ft | 548 kts | 54° |
| 2026-05-05 14:45 | 28.82596 | -14.16272 | 35619 ft | 548 kts | 54° |
| 2026-05-05 14:45 | 28.84706 | -14.12654 | 35888 ft | 547 kts | 54° |
| 2026-05-05 14:45 | 28.86811 | -14.09036 | 36025 ft | 547 kts | 54° |
| 2026-05-05 14:46 | 28.90995 | -14.01816 | 36050 ft | 544 kts | 54° |
| 2026-05-05 14:46 | 28.95163 | -13.94630 | 36054 ft | 543 kts | 54° |
| 2026-05-05 14:47 | 28.99332 | -13.87438 | 36057 ft | 543 kts | 54° |
| 2026-05-05 14:47 | 29.03478 | -13.80274 | 36057 ft | 543 kts | 54° |
| 2026-05-05 14:48 | 29.07642 | -13.73059 | 36051 ft | 543 kts | 54° |
| 2026-05-05 14:48 | 29.11798 | -13.65835 | 36049 ft | 543 kts | 54° |
| 2026-05-05 14:49 | 29.15945 | -13.58617 | 36070 ft | 543 kts | 54° |
| 2026-05-05 14:49 | 29.20097 | -13.51390 | 36061 ft | 543 kts | 54° |
| 2026-05-05 14:50 | 29.24244 | -13.44155 | 36052 ft | 544 kts | 54° |
| 2026-05-05 14:50 | 29.28396 | -13.36900 | 36053 ft | 544 kts | 54° |
| 2026-05-05 14:51 | 29.32513 | -13.29688 | 36055 ft | 544 kts | 54° |
| 2026-05-05 14:51 | 29.36654 | -13.22420 | 36055 ft | 544 kts | 54° |
| 2026-05-05 14:52 | 29.40790 | -13.15141 | 36049 ft | 544 kts | 54° |
| 2026-05-05 14:52 | 29.44928 | -13.07858 | 36034 ft | 544 kts | 54° |
| 2026-05-05 14:53 | 29.49056 | -13.00583 | 36077 ft | 544 kts | 54° |
| 2026-05-05 14:53 | 29.53173 | -12.93289 | 36059 ft | 544 kts | 54° |
| 2026-05-05 14:54 | 29.57280 | -12.86035 | 36052 ft | 544 kts | 54° |
| 2026-05-05 14:54 | 29.61401 | -12.78728 | 36047 ft | 545 kts | 54° |
| 2026-05-05 14:55 | 29.65527 | -12.71413 | 36032 ft | 545 kts | 54° |
| 2026-05-05 14:55 | 29.69644 | -12.64095 | 36043 ft | 545 kts | 54° |
| 2026-05-05 14:56 | 29.73053 | -12.58000 | 36042 ft | 545 kts | 54° |
| 2026-05-05 14:56 | 29.77242 | -12.50728 | 36045 ft | 545 kts | 52° |
| 2026-05-05 14:57 | 29.81546 | -12.43559 | 36092 ft | 544 kts | 51° |
| 2026-05-05 14:57 | 29.85852 | -12.36385 | 36057 ft | 545 kts | 51° |
| 2026-05-05 14:58 | 29.90121 | -12.29156 | 36046 ft | 545 kts | 52° |
| 2026-05-05 14:58 | 29.94358 | -12.21916 | 36050 ft | 545 kts | 52° |
| 2026-05-05 14:59 | 29.98602 | -12.14671 | 36041 ft | 545 kts | 52° |
| 2026-05-05 14:59 | 30.02850 | -12.07428 | 36037 ft | 545 kts | 52° |
| 2026-05-05 15:00 | 30.06395 | -12.01423 | 36029 ft | 545 kts | 52° |
| 2026-05-05 15:00 | 30.11409 | -11.92984 | 36035 ft | 545 kts | 52° |
| 2026-05-05 15:01 | 30.15652 | -11.85794 | 36042 ft | 545 kts | 52° |
| 2026-05-05 15:01 | 30.19912 | -11.78537 | 36042 ft | 545 kts | 52° |
| 2026-05-05 15:02 | 30.24176 | -11.71277 | 36044 ft | 545 kts | 52° |
| 2026-05-05 15:02 | 30.28436 | -11.64021 | 36047 ft | 545 kts | 52° |
| 2026-05-05 15:03 | 30.32703 | -11.56743 | 36047 ft | 545 kts | 52° |
| 2026-05-05 15:03 | 30.36932 | -11.49507 | 36046 ft | 546 kts | 52° |
| 2026-05-05 15:04 | 30.41178 | -11.42223 | 36048 ft | 546 kts | 52° |
| 2026-05-05 15:04 | 30.45421 | -11.34930 | 36047 ft | 545 kts | 52° |
| 2026-05-05 15:05 | 30.51777 | -11.23974 | 36052 ft | 545 kts | 52° |
| 2026-05-05 15:06 | 30.55985 | -11.16716 | 36047 ft | 545 kts | 52° |
| 2026-05-05 15:06 | 30.60219 | -11.09405 | 36050 ft | 545 kts | 52° |
| 2026-05-05 15:07 | 30.64441 | -11.02103 | 36046 ft | 545 kts | 52° |
| 2026-05-05 15:07 | 30.68658 | -10.94777 | 36030 ft | 545 kts | 52° |
| 2026-05-05 15:08 | 30.72870 | -10.87439 | 36028 ft | 545 kts | 52° |
| 2026-05-05 15:08 | 30.77076 | -10.80129 | 36036 ft | 544 kts | 52° |
| 2026-05-05 15:09 | 30.81282 | -10.72805 | 36055 ft | 545 kts | 52° |
| 2026-05-05 15:09 | 30.85478 | -10.65459 | 36037 ft | 545 kts | 52° |
| 2026-05-05 15:10 | 30.89674 | -10.58109 | 36038 ft | 545 kts | 52° |
| 2026-05-05 15:10 | 30.93843 | -10.50799 | 36028 ft | 545 kts | 52° |
| 2026-05-05 15:11 | 30.98035 | -10.43446 | 36025 ft | 544 kts | 52° |
| 2026-05-05 15:11 | 31.02211 | -10.36096 | 36022 ft | 544 kts | 52° |
| 2026-05-05 15:12 | 31.06383 | -10.28723 | 36022 ft | 544 kts | 52° |
| 2026-05-05 15:12 | 31.10552 | -10.21344 | 36013 ft | 544 kts | 52° |
| 2026-05-05 15:13 | 31.14723 | -10.13964 | 36043 ft | 544 kts | 52° |
| 2026-05-05 15:13 | 31.18888 | -10.06579 | 36029 ft | 544 kts | 52° |
| 2026-05-05 15:14 | 31.23018 | -9.99240 | 36016 ft | 544 kts | 52° |
| 2026-05-05 15:14 | 31.27171 | -9.91847 | 36006 ft | 544 kts | 52° |
| 2026-05-05 15:15 | 31.31320 | -9.84461 | 36002 ft | 544 kts | 52° |
| 2026-05-05 15:15 | 31.35456 | -9.77063 | 35991 ft | 544 kts | 52° |
| 2026-05-05 15:16 | 31.39980 | -9.70057 | 35994 ft | 534 kts | 39° |
| 2026-05-05 15:16 | 31.45648 | -9.64720 | 36021 ft | 515 kts | 22° |
| 2026-05-05 15:17 | 31.51762 | -9.60339 | 36015 ft | 515 kts | 22° |
| 2026-05-05 15:17 | 31.57868 | -9.55921 | 36016 ft | 515 kts | 22° |
| 2026-05-05 15:18 | 31.63972 | -9.51498 | 36018 ft | 515 kts | 22° |
| 2026-05-05 15:18 | 31.70038 | -9.47110 | 36025 ft | 516 kts | 22° |
| 2026-05-05 15:19 | 31.76147 | -9.42686 | 36049 ft | 515 kts | 23° |
| 2026-05-05 15:19 | 31.82252 | -9.38252 | 36039 ft | 515 kts | 23° |
| 2026-05-05 15:20 | 31.88341 | -9.33817 | 36040 ft | 515 kts | 23° |
| 2026-05-05 15:20 | 31.94439 | -9.29371 | 36037 ft | 515 kts | 23° |
| 2026-05-05 15:21 | 32.00534 | -9.24923 | 36041 ft | 515 kts | 23° |
| 2026-05-05 15:21 | 32.06618 | -9.20481 | 36029 ft | 514 kts | 24° |
| 2026-05-05 15:22 | 32.12694 | -9.16032 | 36031 ft | 514 kts | 24° |
| 2026-05-05 15:22 | 32.18763 | -9.11573 | 36039 ft | 514 kts | 24° |
| 2026-05-05 15:23 | 32.24808 | -9.07130 | 36024 ft | 514 kts | 24° |
| 2026-05-05 15:23 | 32.30885 | -9.02667 | 36068 ft | 514 kts | 24° |
| 2026-05-05 15:24 | 32.36951 | -8.98203 | 36066 ft | 513 kts | 24° |
| 2026-05-05 15:24 | 32.43005 | -8.93740 | 36068 ft | 513 kts | 24° |
| 2026-05-05 15:25 | 32.49056 | -8.89263 | 36063 ft | 512 kts | 24° |
| 2026-05-05 15:25 | 32.55096 | -8.84779 | 36065 ft | 512 kts | 24° |
| 2026-05-05 15:26 | 32.61119 | -8.80311 | 36098 ft | 510 kts | 25° |
| 2026-05-05 15:26 | 32.67123 | -8.75857 | 36086 ft | 507 kts | 25° |
| 2026-05-05 15:27 | 32.73088 | -8.71424 | 36068 ft | 505 kts | 25° |
| 2026-05-05 15:27 | 32.79046 | -8.66993 | 36061 ft | 505 kts | 25° |
| 2026-05-05 15:28 | 32.84963 | -8.62582 | 36051 ft | 505 kts | 25° |
| 2026-05-05 15:28 | 32.90913 | -8.58124 | 36094 ft | 504 kts | 26° |
| 2026-05-05 15:29 | 32.96832 | -8.53685 | 36089 ft | 501 kts | 26° |
| 2026-05-05 15:29 | 33.02726 | -8.49270 | 36083 ft | 500 kts | 26° |
| 2026-05-05 15:30 | 33.08611 | -8.44855 | 36084 ft | 499 kts | 26° |
| 2026-05-05 15:30 | 33.14476 | -8.40442 | 36082 ft | 498 kts | 26° |
| 2026-05-05 15:31 | 33.20336 | -8.36026 | 36082 ft | 498 kts | 26° |
| 2026-05-05 15:31 | 33.26198 | -8.31612 | 36048 ft | 498 kts | 26° |
| 2026-05-05 15:32 | 33.32070 | -8.27192 | 36044 ft | 499 kts | 26° |
| 2026-05-05 15:32 | 33.37957 | -8.22755 | 36048 ft | 500 kts | 26° |
| 2026-05-05 15:33 | 33.43803 | -8.18341 | 36090 ft | 500 kts | 27° |
| 2026-05-05 15:33 | 33.49671 | -8.13892 | 36088 ft | 498 kts | 27° |
| 2026-05-05 15:34 | 33.55515 | -8.09457 | 36090 ft | 496 kts | 26° |
| 2026-05-05 15:34 | 33.61348 | -8.05037 | 36084 ft | 495 kts | 27° |
| 2026-05-05 15:35 | 33.67169 | -8.00611 | 36078 ft | 495 kts | 27° |
| 2026-05-05 15:35 | 33.72980 | -7.96192 | 36104 ft | 494 kts | 27° |
| 2026-05-05 15:36 | 33.78759 | -7.91783 | 36097 ft | 490 kts | 27° |
| 2026-05-05 15:36 | 33.84500 | -7.87402 | 36088 ft | 488 kts | 27° |
| 2026-05-05 15:37 | 33.90223 | -7.83026 | 36093 ft | 487 kts | 27° |
| 2026-05-05 15:37 | 33.95923 | -7.78649 | 36086 ft | 486 kts | 28° |
| 2026-05-05 15:38 | 34.01577 | -7.74293 | 36110 ft | 483 kts | 29° |
| 2026-05-05 15:38 | 34.07229 | -7.69949 | 36101 ft | 480 kts | 29° |
| 2026-05-05 15:39 | 34.12842 | -7.65632 | 36103 ft | 477 kts | 29° |
| 2026-05-05 15:39 | 34.18435 | -7.61323 | 36097 ft | 476 kts | 29° |
| 2026-05-05 15:40 | 34.24013 | -7.57009 | 36067 ft | 476 kts | 28° |
| 2026-05-05 15:40 | 34.29579 | -7.52694 | 36094 ft | 475 kts | 29° |
| 2026-05-05 15:41 | 34.35131 | -7.48394 | 36096 ft | 473 kts | 29° |
| 2026-05-05 15:41 | 34.40635 | -7.44123 | 36091 ft | 473 kts | 29° |
| 2026-05-05 15:42 | 34.46164 | -7.39822 | 36087 ft | 472 kts | 29° |
| 2026-05-05 15:42 | 34.51689 | -7.35520 | 36098 ft | 472 kts | 29° |
| 2026-05-05 15:43 | 34.57207 | -7.31218 | 36098 ft | 471 kts | 30° |
| 2026-05-05 15:43 | 34.62717 | -7.26914 | 36091 ft | 471 kts | 30° |
| 2026-05-05 15:44 | 34.68222 | -7.22608 | 36085 ft | 471 kts | 30° |
| 2026-05-05 15:44 | 34.73726 | -7.18298 | 36084 ft | 471 kts | 29° |
| 2026-05-05 15:45 | 34.79228 | -7.13974 | 36088 ft | 471 kts | 30° |
| 2026-05-05 15:45 | 34.84725 | -7.09646 | 36084 ft | 470 kts | 30° |
| 2026-05-05 15:46 | 34.90224 | -7.05318 | 36076 ft | 470 kts | 30° |
| 2026-05-05 15:46 | 34.94787 | -7.01722 | 36072 ft | 470 kts | 30° |
| 2026-05-05 15:47 | 35.01166 | -6.96683 | 36063 ft | 470 kts | 30° |
| 2026-05-05 15:47 | 35.06652 | -6.92340 | 36074 ft | 470 kts | 30° |
| 2026-05-05 15:48 | 35.11254 | -6.88690 | 36053 ft | 471 kts | 30° |
| 2026-05-05 15:48 | 35.16759 | -6.84321 | 36049 ft | 472 kts | 30° |
| 2026-05-05 15:49 | 35.22236 | -6.79965 | 36039 ft | 473 kts | 30° |
| 2026-05-05 15:49 | 35.27751 | -6.75569 | 36038 ft | 474 kts | 30° |
| 2026-05-05 15:50 | 35.33283 | -6.71155 | 36052 ft | 475 kts | 30° |
| 2026-05-05 15:50 | 35.38840 | -6.66775 | 36038 ft | 476 kts | 29° |
| 2026-05-05 15:51 | 35.44460 | -6.62477 | 36033 ft | 476 kts | 28° |
| 2026-05-05 15:51 | 35.50097 | -6.58177 | 36037 ft | 477 kts | 28° |
| 2026-05-05 15:52 | 35.55716 | -6.53848 | 36036 ft | 477 kts | 29° |
| 2026-05-05 15:52 | 35.61296 | -6.49526 | 36049 ft | 477 kts | 28° |
| 2026-05-05 15:53 | 35.66912 | -6.45170 | 36033 ft | 478 kts | 28° |
| 2026-05-05 15:53 | 35.72533 | -6.40803 | 36034 ft | 478 kts | 28° |
| 2026-05-05 15:54 | 35.78160 | -6.36427 | 36029 ft | 478 kts | 28° |
| 2026-05-05 15:54 | 35.83785 | -6.32040 | 36031 ft | 478 kts | 29° |
| 2026-05-05 15:55 | 35.89311 | -6.27456 | 36040 ft | 480 kts | 31° |
| 2026-05-05 15:55 | 35.94767 | -6.22684 | 35858 ft | 480 kts | 32° |
| 2026-05-05 15:55 | 35.97495 | -6.20292 | 34971 ft | 486 kts | 32° |
| 2026-05-05 15:56 | 36.00282 | -6.17875 | 34018 ft | 492 kts | 32° |
| 2026-05-05 15:56 | 36.03105 | -6.15448 | 33026 ft | 496 kts | 32° |
| 2026-05-05 15:56 | 36.05924 | -6.13032 | 32502 ft | 489 kts | 32° |
| 2026-05-05 15:56 | 36.08710 | -6.10647 | 31850 ft | 486 kts | 32° |
| 2026-05-05 15:57 | 36.11480 | -6.08272 | 31218 ft | 483 kts | 31° |
| 2026-05-05 15:57 | 36.14195 | -6.05939 | 30606 ft | 480 kts | 31° |
| 2026-05-05 15:57 | 36.16966 | -6.03557 | 29963 ft | 477 kts | 31° |
| 2026-05-05 15:57 | 36.19644 | -6.01257 | 29339 ft | 473 kts | 31° |
| 2026-05-05 15:58 | 36.22353 | -5.98980 | 28772 ft | 465 kts | 27° |
| 2026-05-05 15:58 | 36.25205 | -5.97185 | 28229 ft | 455 kts | 17° |
| 2026-05-05 15:58 | 36.28166 | -5.95954 | 27702 ft | 446 kts | 12° |
| 2026-05-05 15:58 | 36.31119 | -5.94846 | 27178 ft | 441 kts | 12° |
| 2026-05-05 15:59 | 36.34034 | -5.93745 | 26666 ft | 435 kts | 12° |
| 2026-05-05 15:59 | 36.36913 | -5.92654 | 26176 ft | 431 kts | 12° |
| 2026-05-05 15:59 | 36.39766 | -5.91574 | 25708 ft | 426 kts | 12° |
| 2026-05-05 15:59 | 36.42587 | -5.90506 | 25218 ft | 422 kts | 12° |
| 2026-05-05 16:00 | 36.45385 | -5.89450 | 24759 ft | 418 kts | 12° |
| 2026-05-05 16:00 | 36.48157 | -5.88403 | 24311 ft | 415 kts | 12° |
| 2026-05-05 16:00 | 36.50908 | -5.87360 | 23846 ft | 413 kts | 12° |
| 2026-05-05 16:00 | 36.53650 | -5.86321 | 23354 ft | 411 kts | 12° |
| 2026-05-05 16:01 | 36.56379 | -5.85288 | 22864 ft | 408 kts | 12° |
| 2026-05-05 16:01 | 36.59083 | -5.84265 | 22403 ft | 404 kts | 12° |
| 2026-05-05 16:01 | 36.61763 | -5.83248 | 21959 ft | 401 kts | 13° |
| 2026-05-05 16:01 | 36.64428 | -5.82235 | 21482 ft | 398 kts | 13° |
| 2026-05-05 16:02 | 36.67067 | -5.81230 | 21015 ft | 395 kts | 13° |
| 2026-05-05 16:02 | 36.69689 | -5.80230 | 20546 ft | 392 kts | 13° |
| 2026-05-05 16:02 | 36.72259 | -5.79250 | 20082 ft | 390 kts | 13° |
| 2026-05-05 16:02 | 36.74843 | -5.78262 | 19606 ft | 388 kts | 13° |
| 2026-05-05 16:03 | 36.77412 | -5.77280 | 19139 ft | 385 kts | 13° |
| 2026-05-05 16:03 | 36.79972 | -5.76300 | 18667 ft | 382 kts | 13° |
| 2026-05-05 16:03 | 36.82497 | -5.75333 | 18203 ft | 377 kts | 13° |
| 2026-05-05 16:03 | 36.84990 | -5.74378 | 17718 ft | 373 kts | 13° |
| 2026-05-05 16:04 | 36.87457 | -5.73433 | 17265 ft | 369 kts | 14° |
| 2026-05-05 16:04 | 36.89902 | -5.72499 | 16818 ft | 366 kts | 14° |
| 2026-05-05 16:04 | 36.92329 | -5.71572 | 16376 ft | 362 kts | 13° |
| 2026-05-05 16:04 | 36.94725 | -5.70656 | 15954 ft | 359 kts | 13° |
| 2026-05-05 16:05 | 36.97104 | -5.69746 | 15530 ft | 356 kts | 13° |
| 2026-05-05 16:05 | 36.99469 | -5.68838 | 15104 ft | 354 kts | 13° |
| 2026-05-05 16:05 | 37.01811 | -5.67937 | 14677 ft | 351 kts | 13° |
| 2026-05-05 16:05 | 37.04147 | -5.67040 | 14259 ft | 349 kts | 14° |
| 2026-05-05 16:06 | 37.06466 | -5.66151 | 13816 ft | 348 kts | 14° |
| 2026-05-05 16:06 | 37.08773 | -5.65265 | 13364 ft | 346 kts | 14° |
| 2026-05-05 16:06 | 37.11060 | -5.64384 | 12946 ft | 343 kts | 13° |
| 2026-05-05 16:06 | 37.13327 | -5.63506 | 12509 ft | 340 kts | 13° |
| 2026-05-05 16:07 | 37.15542 | -5.62643 | 12078 ft | 337 kts | 15° |
| 2026-05-05 16:07 | 37.17592 | -5.61271 | 11826 ft | 335 kts | 37° |
| 2026-05-05 16:07 | 37.19031 | -5.59030 | 11688 ft | 328 kts | 62° |
| 2026-05-05 16:07 | 37.19624 | -5.56345 | 11569 ft | 315 kts | 85° |
| 2026-05-05 16:08 | 37.19696 | -5.53643 | 11337 ft | 306 kts | 89° |
| 2026-05-05 16:08 | 37.19708 | -5.50992 | 10965 ft | 302 kts | 89° |
| 2026-05-05 16:08 | 37.19709 | -5.48370 | 10561 ft | 299 kts | 89° |
| 2026-05-05 16:08 | 37.19706 | -5.45770 | 10174 ft | 297 kts | 89° |
| 2026-05-05 16:09 | 37.19787 | -5.43201 | 9750 ft | 293 kts | 77° |
| 2026-05-05 16:09 | 37.20585 | -5.40917 | 9331 ft | 284 kts | 49° |
| 2026-05-05 16:09 | 37.21943 | -5.39154 | 8898 ft | 278 kts | 34° |
| 2026-05-05 16:09 | 37.23619 | -5.38041 | 8499 ft | 270 kts | 13° |
| 2026-05-05 16:10 | 37.25448 | -5.37810 | 8141 ft | 262 kts | 351° |
| 2026-05-05 16:10 | 37.27154 | -5.38478 | 7851 ft | 255 kts | 328° |
| 2026-05-05 16:10 | 37.28510 | -5.39917 | 7430 ft | 258 kts | 306° |
| 2026-05-05 16:10 | 37.29468 | -5.41823 | 7020 ft | 257 kts | 301° |
| 2026-05-05 16:11 | 37.30392 | -5.43747 | 6534 ft | 261 kts | 301° |
| 2026-05-05 16:11 | 37.33119 | -5.49390 | 5535 ft | 247 kts | 301° |
| 2026-05-05 16:12 | 37.34008 | -5.51233 | 5042 ft | 246 kts | 301° |
| 2026-05-05 16:12 | 37.35775 | -5.54899 | 4123 ft | 243 kts | 301° |
| 2026-05-05 16:13 | 37.38321 | -5.60186 | 3718 ft | 221 kts | 301° |
| 2026-05-05 16:13 | 37.39095 | -5.61797 | 3623 ft | 209 kts | 301° |
| 2026-05-05 16:13 | 37.39820 | -5.63307 | 3546 ft | 199 kts | 300° |
| 2026-05-05 16:14 | 37.41183 | -5.66150 | 3394 ft | 186 kts | 301° |
| 2026-05-05 16:14 | 37.41837 | -5.69248 | 2931 ft | 188 kts | 271° |
| 2026-05-05 16:15 | 37.41833 | -5.72362 | 2443 ft | 168 kts | 272° |
| 2026-05-05 16:15 | 37.41828 | -5.75177 | 2026 ft | 152 kts | 274° |
| 2026-05-05 16:16 | 37.41822 | -5.77624 | 1656 ft | 129 kts | 273° |
| 2026-05-05 16:16 | 37.41822 | -5.79845 | 1324 ft | 126 kts | 275° |
| 2026-05-05 16:17 | 37.41807 | -5.82039 | 921 ft | 124 kts | 274° |
| 2026-05-05 16:17 | 37.41798 | -5.83135 | 806 ft | 124 kts | 274° |
| 2026-05-05 16:18 | 37.41803 | -5.85320 | 432 ft | 126 kts | 275° |
| 2026-05-05 16:18 | 37.41800 | -5.86429 | 282 ft | 128 kts | 273° |
| 2026-05-05 16:18 | 37.41798 | -5.88540 | 106 ft | 94 kts | 269° |
| 2026-05-05 16:19 | 37.41792 | -5.89144 | 101 ft | 46 kts | 269° |
| 2026-05-05 16:19 | 37.41791 | -5.89475 | 100 ft | 30 kts | 270° |
| 2026-05-05 16:19 | 37.41877 | -5.89820 | 97 ft | 20 kts | 340° |
| 2026-05-05 16:20 | 37.42070 | -5.89920 | 97 ft | 13 kts | 336° |
| 2026-05-05 16:20 | 37.42184 | -5.89981 | 94 ft | 5 kts | 313° |
| 2026-05-05 16:21 | 37.42186 | -5.89984 | 94 ft | 0 kts | 314° |